sensor_id;sensor_type;location;lat;lon;timestamp;pressure;altitude;pressure_sealevel;temperature;humidity
65227;BME280;51805;49.012;12.104;2023-04-30T00:01:03;98025.34;;;21.96;47.29
65227;BME280;51805;49.012;12.104;2023-04-30T00:03:28;98039.13;;;22.04;47.01
65227;BME280;51805;49.012;12.104;2023-04-30T00:05:54;98019.41;;;21.94;47.00
65227;BME280;51805;49.012;12.104;2023-04-30T00:08:19;98030.22;;;21.99;47.06
65227;BME280;51805;49.012;12.104;2023-04-30T00:10:44;98037.25;;;22.00;47.07
65227;BME280;51805;49.012;12.104;2023-04-30T00:13:10;98031.56;;;21.96;47.32
65227;BME280;51805;49.012;12.104;2023-04-30T00:15:35;98036.44;;;21.99;47.09
65227;BME280;51805;49.012;12.104;2023-04-30T00:18:01;98022.91;;;21.89;47.13
65227;BME280;51805;49.012;12.104;2023-04-30T00:20:26;98039.41;;;21.98;47.26
65227;BME280;51805;49.012;12.104;2023-04-30T00:22:52;98034.25;;;21.96;47.16
65227;BME280;51805;49.012;12.104;2023-04-30T00:25:17;98041.31;;;21.97;47.16
65227;BME280;51805;49.012;12.104;2023-04-30T00:27:42;98048.88;;;22.00;47.19
65227;BME280;51805;49.012;12.104;2023-04-30T00:30:07;98032.66;;;21.95;47.00
65227;BME280;51805;49.012;12.104;2023-04-30T00:32:33;98033.19;;;21.97;46.93
65227;BME280;51805;49.012;12.104;2023-04-30T00:34:58;98043.47;;;22.00;47.17
65227;BME280;51805;49.012;12.104;2023-04-30T00:37:23;98041.88;;;21.99;47.23
65227;BME280;51805;49.012;12.104;2023-04-30T00:39:49;98038.59;;;21.97;47.13
65227;BME280;51805;49.012;12.104;2023-04-30T00:42:14;98045.63;;;21.98;47.31
65227;BME280;51805;49.012;12.104;2023-04-30T00:44:39;98038.59;;;21.97;47.22
65227;BME280;51805;49.012;12.104;2023-04-30T00:47:04;98048.63;;;21.97;47.15
65227;BME280;51805;49.012;12.104;2023-04-30T00:49:30;98052.69;;;21.99;47.12
65227;BME280;51805;49.012;12.104;2023-04-30T00:51:55;98047.78;;;21.96;47.18
65227;BME280;51805;49.012;12.104;2023-04-30T00:54:20;98047.78;;;21.96;47.11
65227;BME280;51805;49.012;12.104;2023-04-30T00:56:47;98047.53;;;21.93;47.17
65227;BME280;51805;49.012;12.104;2023-04-30T00:59:12;98048.06;;;21.95;47.31
65227;BME280;51805;49.012;12.104;2023-04-30T01:01:38;98059.44;;;21.97;47.07
65227;BME280;51805;49.012;12.104;2023-04-30T01:04:04;98047.53;;;21.88;47.19
65227;BME280;51805;49.012;12.104;2023-04-30T01:06:29;98054.28;;;21.95;47.10
65227;BME280;51805;49.012;12.104;2023-04-30T01:08:55;98051.88;;;21.94;47.29
65227;BME280;51805;49.012;12.104;2023-04-30T01:14:24;98055.94;;;21.91;47.25
65227;BME280;51805;49.012;12.104;2023-04-30T01:17:07;98063.78;;;21.93;47.20
65227;BME280;51805;49.012;12.104;2023-04-30T01:19:43;98071.63;;;21.94;47.23
65227;BME280;51805;49.012;12.104;2023-04-30T01:28:00;98064.56;;;21.93;47.17
65227;BME280;51805;49.012;12.104;2023-04-30T01:30:26;98064.34;;;21.90;47.12
65227;BME280;51805;49.012;12.104;2023-04-30T01:32:51;98067.31;;;21.88;47.18
65227;BME280;51805;49.012;12.104;2023-04-30T01:35:17;98057.56;;;21.87;47.13
65227;BME280;51805;49.012;12.104;2023-04-30T01:40:43;98072.97;;;21.92;47.25
65227;BME280;51805;49.012;12.104;2023-04-30T01:43:19;98071.91;;;21.93;47.14
65227;BME280;51805;49.012;12.104;2023-04-30T01:51:26;98079.19;;;21.92;47.08
65227;BME280;51805;49.012;12.104;2023-04-30T01:53:56;98071.91;;;21.88;47.22
65227;BME280;51805;49.012;12.104;2023-04-30T01:56:44;98083.53;;;21.88;47.20
65227;BME280;51805;49.012;12.104;2023-04-30T01:59:14;98084.06;;;21.90;47.20
65227;BME280;51805;49.012;12.104;2023-04-30T02:01:40;98078.69;;;21.85;46.98
65227;BME280;51805;49.012;12.104;2023-04-30T02:04:05;98080.28;;;21.86;47.19
65227;BME280;51805;49.012;12.104;2023-04-30T02:06:30;98091.38;;;21.90;47.24
65227;BME280;51805;49.012;12.104;2023-04-30T02:08:56;98090.56;;;21.89;47.26
65227;BME280;51805;49.012;12.104;2023-04-30T02:11:22;98095.97;;;21.89;47.17
65227;BME280;51805;49.012;12.104;2023-04-30T02:13:47;98081.94;;;21.82;46.91
65227;BME280;51805;49.012;12.104;2023-04-30T02:16:12;98092.47;;;21.84;47.20
65227;BME280;51805;49.012;12.104;2023-04-30T02:18:37;98097.06;;;21.88;47.21
65227;BME280;51805;49.012;12.104;2023-04-30T02:21:03;98077.56;;;21.81;47.19
65227;BME280;51805;49.012;12.104;2023-04-30T02:23:28;98096.53;;;21.86;47.20
65227;BME280;51805;49.012;12.104;2023-04-30T02:25:53;98082.19;;;21.81;47.15
65227;BME280;51805;49.012;12.104;2023-04-30T02:28:19;98090.00;;;21.87;47.22
65227;BME280;51805;49.012;12.104;2023-04-30T02:30:44;98094.91;;;21.85;47.22
65227;BME280;51805;49.012;12.104;2023-04-30T02:33:09;98091.66;;;21.83;47.32
65227;BME280;51805;49.012;12.104;2023-04-30T02:35:34;98089.78;;;21.84;47.37
65227;BME280;51805;49.012;12.104;2023-04-30T02:38:00;98096.78;;;21.85;47.13
65227;BME280;51805;49.012;12.104;2023-04-30T02:40:25;98086.50;;;21.82;47.30
65227;BME280;51805;49.012;12.104;2023-04-30T02:42:50;98094.38;;;21.83;47.19
65227;BME280;51805;49.012;12.104;2023-04-30T02:45:15;98097.06;;;21.83;47.22
65227;BME280;51805;49.012;12.104;2023-04-30T02:47:41;98103.31;;;21.84;47.14
65227;BME280;51805;49.012;12.104;2023-04-30T02:50:06;98097.88;;;21.84;47.25
65227;BME280;51805;49.012;12.104;2023-04-30T02:52:32;98099.50;;;21.85;47.26
65227;BME280;51805;49.012;12.104;2023-04-30T02:54:57;98092.75;;;21.82;47.28
65227;BME280;51805;49.012;12.104;2023-04-30T02:57:22;98088.41;;;21.81;47.04
65227;BME280;51805;49.012;12.104;2023-04-30T02:59:47;98085.97;;;21.80;47.25
65227;BME280;51805;49.012;12.104;2023-04-30T03:02:13;98094.91;;;21.80;47.25
65227;BME280;51805;49.012;12.104;2023-04-30T03:04:38;98097.59;;;21.80;47.28
65227;BME280;51805;49.012;12.104;2023-04-30T03:07:03;98100.59;;;21.79;47.13
65227;BME280;51805;49.012;12.104;2023-04-30T03:09:29;98096.50;;;21.81;47.21
65227;BME280;51805;49.012;12.104;2023-04-30T03:11:55;98096.50;;;21.76;47.31
65227;BME280;51805;49.012;12.104;2023-04-30T03:14:20;98107.59;;;21.80;47.08
65227;BME280;51805;49.012;12.104;2023-04-30T03:16:45;98102.19;;;21.75;47.17
65227;BME280;51805;49.012;12.104;2023-04-30T03:19:10;98108.44;;;21.80;47.38
65227;BME280;51805;49.012;12.104;2023-04-30T03:21:36;98108.69;;;21.79;47.15
65227;BME280;51805;49.012;12.104;2023-04-30T03:24:01;98097.03;;;21.73;47.15
65227;BME280;51805;49.012;12.104;2023-04-30T03:26:26;98110.03;;;21.81;47.17
65227;BME280;51805;49.012;12.104;2023-04-30T03:28:52;98112.22;;;21.79;47.42
65227;BME280;51805;49.012;12.104;2023-04-30T03:31:17;98099.19;;;21.71;47.39
65227;BME280;51805;49.012;12.104;2023-04-30T03:33:42;98097.03;;;21.73;47.17
65227;BME280;51805;49.012;12.104;2023-04-30T03:36:07;98115.44;;;21.81;47.25
65227;BME280;51805;49.012;12.104;2023-04-30T03:38:33;98104.91;;;21.80;47.02
65227;BME280;51805;49.012;12.104;2023-04-30T03:40:58;98098.66;;;21.74;47.29
65227;BME280;51805;49.012;12.104;2023-04-30T03:43:23;98098.66;;;21.74;47.39
65227;BME280;51805;49.012;12.104;2023-04-30T03:45:49;98097.03;;;21.73;47.39
65227;BME280;51805;49.012;12.104;2023-04-30T03:48:14;98103.56;;;21.77;47.22
65227;BME280;51805;49.012;12.104;2023-04-30T03:50:39;98108.97;;;21.77;47.15
65227;BME280;51805;49.012;12.104;2023-04-30T03:53:04;98111.41;;;21.79;47.25
65227;BME280;51805;49.012;12.104;2023-04-30T03:55:30;98095.94;;;21.69;47.37
65227;BME280;51805;49.012;12.104;2023-04-30T03:57:55;98090.53;;;21.69;47.26
65227;BME280;51805;49.012;12.104;2023-04-30T04:00:20;98100.84;;;21.77;47.23
65227;BME280;51805;49.012;12.104;2023-04-30T04:02:46;98095.72;;;21.76;47.35
65227;BME280;51805;49.012;12.104;2023-04-30T04:05:11;98094.06;;;21.70;47.29
65227;BME280;51805;49.012;12.104;2023-04-30T04:07:36;98100.81;;;21.72;47.32
65227;BME280;51805;49.012;12.104;2023-04-30T04:10:02;98098.66;;;21.74;47.29
65227;BME280;51805;49.012;12.104;2023-04-30T04:12:27;98106.50;;;21.71;47.39
65227;BME280;51805;49.012;12.104;2023-04-30T04:14:52;98110.03;;;21.76;47.25
65227;BME280;51805;49.012;12.104;2023-04-30T04:17:17;98113.25;;;21.73;47.41
65227;BME280;51805;49.012;12.104;2023-04-30T04:19:43;98111.63;;;21.72;47.30
65227;BME280;51805;49.012;12.104;2023-04-30T04:22:08;98115.72;;;21.75;47.22
65227;BME280;51805;49.012;12.104;2023-04-30T04:24:33;98115.44;;;21.71;47.43
65227;BME280;51805;49.012;12.104;2023-04-30T04:26:59;98096.50;;;21.66;47.32
65227;BME280;51805;49.012;12.104;2023-04-30T04:29:24;98113.53;;;21.72;47.17
65227;BME280;51805;49.012;12.104;2023-04-30T04:31:49;98113.78;;;21.70;47.13
65227;BME280;51805;49.012;12.104;2023-04-30T04:34:15;98126.25;;;21.76;47.22
65227;BME280;51805;49.012;12.104;2023-04-30T04:36:41;98121.13;;;21.75;47.25
65227;BME280;51805;49.012;12.104;2023-04-30T04:39:06;98130.63;;;21.77;47.29
65227;BME280;51805;49.012;12.104;2023-04-30T04:41:32;98120.84;;;21.71;47.28
65227;BME280;51805;49.012;12.104;2023-04-30T04:44:01;98136.53;;;21.74;47.25
65227;BME280;51805;49.012;12.104;2023-04-30T04:46:26;98132.78;;;21.75;47.07
65227;BME280;51805;49.012;12.104;2023-04-30T04:48:51;98137.63;;;21.78;47.09
65227;BME280;51805;49.012;12.104;2023-04-30T04:51:17;98148.47;;;21.78;47.20
65227;BME280;51805;49.012;12.104;2023-04-30T04:53:42;98128.69;;;21.73;47.11
65227;BME280;51805;49.012;12.104;2023-04-30T04:56:07;98140.91;;;21.80;47.14
65227;BME280;51805;49.012;12.104;2023-04-30T04:58:33;98127.31;;;21.70;47.16
65227;BME280;51805;49.012;12.104;2023-04-30T05:00:58;98129.78;;;21.77;47.21
65227;BME280;51805;49.012;12.104;2023-04-30T05:03:23;98141.97;;;21.79;47.24
65227;BME280;51805;49.012;12.104;2023-04-30T05:05:48;98136.56;;;21.79;47.19
65227;BME280;51805;49.012;12.104;2023-04-30T05:08:14;98144.69;;;21.79;47.23
65227;BME280;51805;49.012;12.104;2023-04-30T05:10:39;98136.03;;;21.77;47.09
65227;BME280;51805;49.012;12.104;2023-04-30T05:13:04;98146.59;;;21.84;47.12
65227;BME280;51805;49.012;12.104;2023-04-30T05:15:30;98150.91;;;21.85;46.93
65227;BME280;51805;49.012;12.104;2023-04-30T05:17:55;98142.22;;;21.83;46.82
65227;BME280;51805;49.012;12.104;2023-04-30T05:20:20;98151.97;;;21.89;47.03
65227;BME280;51805;49.012;12.104;2023-04-30T05:22:45;98130.91;;;21.81;46.91
65227;BME280;51805;49.012;12.104;2023-04-30T05:25:11;98142.25;;;21.88;47.07
65227;BME280;51805;49.012;12.104;2023-04-30T05:27:36;98160.38;;;21.92;47.01
65227;BME280;51805;49.012;12.104;2023-04-30T05:30:02;98154.41;;;21.90;46.88
65227;BME280;51805;49.012;12.104;2023-04-30T05:32:27;98152.50;;;21.86;46.98
65227;BME280;51805;49.012;12.104;2023-04-30T05:34:52;98151.72;;;21.90;46.85
65227;BME280;51805;49.012;12.104;2023-04-30T05:37:18;98157.66;;;21.92;47.12
65227;BME280;51805;49.012;12.104;2023-04-30T05:39:43;98148.22;;;21.90;46.80
65227;BME280;51805;49.012;12.104;2023-04-30T05:42:08;98157.66;;;21.92;46.90
65227;BME280;51805;49.012;12.104;2023-04-30T05:44:40;98164.69;;;21.98;46.82
65227;BME280;51805;49.012;12.104;2023-04-30T05:47:05;98157.13;;;21.95;46.81
65227;BME280;51805;49.012;12.104;2023-04-30T05:49:31;98160.38;;;21.97;46.97
65227;BME280;51805;49.012;12.104;2023-04-30T05:51:56;98156.03;;;21.86;46.87
65227;BME280;51805;49.012;12.104;2023-04-30T05:54:21;98166.84;;;21.96;46.91
65227;BME280;51805;49.012;12.104;2023-04-30T05:56:47;98170.66;;;21.95;46.90
65227;BME280;51805;49.012;12.104;2023-04-30T05:59:12;98172.25;;;21.96;47.02
65227;BME280;51805;49.012;12.104;2023-04-30T06:01:37;98171.47;;;21.96;46.92
65227;BME280;51805;49.012;12.104;2023-04-30T06:04:03;98173.63;;;21.99;46.99
65227;BME280;51805;49.012;12.104;2023-04-30T06:06:28;98164.69;;;21.93;47.05
65227;BME280;51805;49.012;12.104;2023-04-30T06:08:53;98172.25;;;21.96;46.95
65227;BME280;51805;49.012;12.104;2023-04-30T06:11:19;98178.78;;;22.00;46.74
65227;BME280;51805;49.012;12.104;2023-04-30T06:13:46;98166.84;;;21.96;46.77
65227;BME280;51805;49.012;12.104;2023-04-30T06:16:12;98173.38;;;22.00;46.90
65227;BME280;51805;49.012;12.104;2023-04-30T06:18:37;98173.38;;;22.00;46.84
65227;BME280;51805;49.012;12.104;2023-04-30T06:21:02;98159.28;;;21.98;46.90
65227;BME280;51805;49.012;12.104;2023-04-30T06:23:27;98157.94;;;21.96;46.90
65227;BME280;51805;49.012;12.104;2023-04-30T06:25:53;98163.09;;;22.02;46.87
65227;BME280;51805;49.012;12.104;2023-04-30T06:28:18;98170.38;;;22.02;46.87
65227;BME280;51805;49.012;12.104;2023-04-30T06:30:43;98166.59;;;22.03;46.88
65227;BME280;51805;49.012;12.104;2023-04-30T06:33:09;98155.53;;;21.99;46.83
65227;BME280;51805;49.012;12.104;2023-04-30T06:35:34;98162.00;;;22.03;46.78
65227;BME280;51805;49.012;12.104;2023-04-30T06:37:59;98173.91;;;22.07;46.80
65227;BME280;51805;49.012;12.104;2023-04-30T06:40:24;98169.03;;;22.09;46.77
65227;BME280;51805;49.012;12.104;2023-04-30T06:42:50;98161.75;;;22.10;46.67
65227;BME280;51805;49.012;12.104;2023-04-30T06:45:15;98157.66;;;22.07;46.72
65227;BME280;51805;49.012;12.104;2023-04-30T06:47:40;98159.81;;;22.10;46.86
65227;BME280;51805;49.012;12.104;2023-04-30T06:50:06;98162.81;;;22.14;46.71
65227;BME280;51805;49.012;12.104;2023-04-30T06:52:31;98172.00;;;22.18;46.90
65227;BME280;51805;49.012;12.104;2023-04-30T06:54:56;98164.97;;;22.12;46.72
65227;BME280;51805;49.012;12.104;2023-04-30T06:57:22;98173.91;;;22.17;46.89
65227;BME280;51805;49.012;12.104;2023-04-30T06:59:47;98175.53;;;22.18;46.78
65227;BME280;51805;49.012;12.104;2023-04-30T07:02:12;98176.06;;;22.15;46.68
65227;BME280;51805;49.012;12.104;2023-04-30T07:04:38;98164.97;;;22.12;46.80
65227;BME280;51805;49.012;12.104;2023-04-30T07:07:03;98174.97;;;22.16;46.74
65227;BME280;51805;49.012;12.104;2023-04-30T07:09:28;98169.28;;;22.18;46.67
65227;BME280;51805;49.012;12.104;2023-04-30T07:11:54;98163.88;;;22.18;46.87
65227;BME280;51805;49.012;12.104;2023-04-30T07:14:19;98161.44;;;22.16;46.71
65227;BME280;51805;49.012;12.104;2023-04-30T07:16:44;98167.94;;;22.20;46.63
65227;BME280;51805;49.012;12.104;2023-04-30T07:19:10;98169.28;;;22.23;46.57
65227;BME280;51805;49.012;12.104;2023-04-30T07:21:35;98167.41;;;22.18;46.65
65227;BME280;51805;49.012;12.104;2023-04-30T07:24:00;98171.44;;;22.26;46.51
65227;BME280;51805;49.012;12.104;2023-04-30T07:26:26;98153.88;;;22.18;46.70
65227;BME280;51805;49.012;12.104;2023-04-30T07:28:51;98166.84;;;22.26;46.70
65227;BME280;51805;49.012;12.104;2023-04-30T07:31:16;98166.31;;;22.29;46.60
65227;BME280;51805;49.012;12.104;2023-04-30T07:33:41;98168.47;;;22.27;46.55
65227;BME280;51805;49.012;12.104;2023-04-30T07:36:07;98171.72;;;22.29;46.65
65227;BME280;51805;49.012;12.104;2023-04-30T07:38:32;98173.88;;;22.32;46.60
65227;BME280;51805;49.012;12.104;2023-04-30T07:40:57;98166.88;;;22.31;46.55
65227;BME280;51805;49.012;12.104;2023-04-30T07:43:23;98168.19;;;22.34;46.59
65227;BME280;51805;49.012;12.104;2023-04-30T07:45:48;98170.09;;;22.38;46.42
65227;BME280;51805;49.012;12.104;2023-04-30T07:48:13;98176.59;;;22.37;46.56
65227;BME280;51805;49.012;12.104;2023-04-30T07:50:38;98143.56;;;22.30;46.33
65227;BME280;51805;49.012;12.104;2023-04-30T07:53:04;98164.94;;;22.37;46.37
65227;BME280;51805;49.012;12.104;2023-04-30T07:55:29;98158.72;;;22.36;46.34
65227;BME280;51805;49.012;12.104;2023-04-30T07:57:54;98169.03;;;22.39;46.29
65227;BME280;51805;49.012;12.104;2023-04-30T08:00:20;98170.91;;;22.39;46.39
65227;BME280;51805;49.012;12.104;2023-04-30T08:02:45;98170.91;;;22.39;46.46
65227;BME280;51805;49.012;12.104;2023-04-30T08:05:10;98165.22;;;22.35;46.49
65227;BME280;51805;49.012;12.104;2023-04-30T08:07:36;98182.03;;;22.42;46.49
65227;BME280;51805;49.012;12.104;2023-04-30T08:10:01;98172.25;;;22.41;46.43
65227;BME280;51805;49.012;12.104;2023-04-30T08:12:26;98181.47;;;22.40;46.30
65227;BME280;51805;49.012;12.104;2023-04-30T08:15:02;98178.22;;;22.38;46.31
65227;BME280;51805;49.012;12.104;2023-04-30T08:17:28;98178.75;;;22.45;46.40
65227;BME280;51805;49.012;12.104;2023-04-30T08:19:53;98177.94;;;22.45;46.12
65227;BME280;51805;49.012;12.104;2023-04-30T08:22:18;98178.72;;;22.50;46.18
65227;BME280;51805;49.012;12.104;2023-04-30T08:24:44;98154.94;;;22.37;46.23
65227;BME280;51805;49.012;12.104;2023-04-30T08:27:09;98165.22;;;22.45;46.49
65227;BME280;51805;49.012;12.104;2023-04-30T08:29:34;98155.47;;;22.39;46.15
65227;BME280;51805;49.012;12.104;2023-04-30T08:32:01;98178.22;;;22.53;46.30
65227;BME280;51805;49.012;12.104;2023-04-30T08:34:27;98178.22;;;22.53;46.26
65227;BME280;51805;49.012;12.104;2023-04-30T08:36:52;98182.03;;;22.52;46.26
65227;BME280;51805;49.012;12.104;2023-04-30T08:39:17;98177.41;;;22.53;46.25
65227;BME280;51805;49.012;12.104;2023-04-30T08:41:45;98173.31;;;22.50;46.38
65227;BME280;51805;49.012;12.104;2023-04-30T08:44:15;98170.59;;;22.50;46.36
65227;BME280;51805;49.012;12.104;2023-04-30T08:46:42;98177.41;;;22.53;46.38
65227;BME280;51805;49.012;12.104;2023-04-30T08:49:07;98169.00;;;22.44;46.30
65227;BME280;51805;49.012;12.104;2023-04-30T08:51:33;98169.53;;;22.46;46.55
65227;BME280;51805;49.012;12.104;2023-04-30T08:53:58;98177.69;;;22.51;46.29
65227;BME280;51805;49.012;12.104;2023-04-30T08:56:24;98170.09;;;22.43;46.17
65227;BME280;51805;49.012;12.104;2023-04-30T08:58:49;98183.13;;;22.51;46.52
65227;BME280;51805;49.012;12.104;2023-04-30T09:01:15;98178.22;;;22.48;46.28
65227;BME280;51805;49.012;12.104;2023-04-30T09:03:40;98179.59;;;22.51;46.30
65227;BME280;51805;49.012;12.104;2023-04-30T09:06:05;98190.16;;;22.52;46.13
65227;BME280;51805;49.012;12.104;2023-04-30T09:08:47;98164.41;;;22.40;46.37
65227;BME280;51805;49.012;12.104;2023-04-30T09:11:42;98182.28;;;22.51;46.29
65227;BME280;51805;49.012;12.104;2023-04-30T09:14:07;98180.91;;;22.48;46.21
65227;BME280;51805;49.012;12.104;2023-04-30T09:16:47;98186.34;;;22.48;46.48
65227;BME280;51805;49.012;12.104;2023-04-30T09:19:29;98172.81;;;22.43;46.43
65227;BME280;51805;49.012;12.104;2023-04-30T09:21:54;98167.09;;;22.45;46.32
65227;BME280;51805;49.012;12.104;2023-04-30T09:24:20;98186.06;;;22.50;46.51
65227;BME280;51805;49.012;12.104;2023-04-30T09:26:46;98175.50;;;22.48;46.74
65227;BME280;51805;49.012;12.104;2023-04-30T09:29:12;98177.13;;;22.49;46.67
65227;BME280;51805;49.012;12.104;2023-04-30T09:31:40;98179.31;;;22.52;46.33
65227;BME280;51805;49.012;12.104;2023-04-30T09:34:05;98175.78;;;22.52;46.44
65227;BME280;51805;49.012;12.104;2023-04-30T09:36:31;98169.56;;;22.51;46.40
65227;BME280;51805;49.012;12.104;2023-04-30T09:39:10;98169.00;;;22.44;46.53
65227;BME280;51805;49.012;12.104;2023-04-30T09:41:35;98169.00;;;22.44;46.20
65227;BME280;51805;49.012;12.104;2023-04-30T09:44:00;98180.09;;;22.48;46.73
65227;BME280;51805;49.012;12.104;2023-04-30T09:46:30;98177.94;;;22.50;46.43
65227;BME280;51805;49.012;12.104;2023-04-30T09:48:57;98180.66;;;22.50;46.48
65227;BME280;51805;49.012;12.104;2023-04-30T09:51:23;98169.81;;;22.50;46.35
65227;BME280;51805;49.012;12.104;2023-04-30T09:53:49;98174.69;;;22.48;46.42
65227;BME280;51805;49.012;12.104;2023-04-30T09:56:19;98158.16;;;22.44;46.38
65227;BME280;51805;49.012;12.104;2023-04-30T09:58:45;98169.56;;;22.51;46.46
65227;BME280;51805;49.012;12.104;2023-04-30T10:01:14;98161.69;;;22.50;46.55
65227;BME280;51805;49.012;12.104;2023-04-30T10:03:39;98153.84;;;22.43;46.46
65227;BME280;51805;49.012;12.104;2023-04-30T10:06:06;98164.16;;;22.51;46.50
65227;BME280;51805;49.012;12.104;2023-04-30T10:08:39;98169.56;;;22.51;46.41
65227;BME280;51805;49.012;12.104;2023-04-30T10:11:06;98158.44;;;22.48;46.42
65227;BME280;51805;49.012;12.104;2023-04-30T10:14:10;98162.47;;;22.50;46.41
65227;BME280;51805;49.012;12.104;2023-04-30T10:16:43;98170.09;;;22.53;46.33
65227;BME280;51805;49.012;12.104;2023-04-30T10:19:15;98158.16;;;22.49;46.46
65227;BME280;51805;49.012;12.104;2023-04-30T10:21:44;98158.75;;;22.51;46.48
65227;BME280;51805;49.012;12.104;2023-04-30T10:24:12;98158.97;;;22.50;46.37
65227;BME280;51805;49.012;12.104;2023-04-30T10:26:37;98157.63;;;22.47;46.45
65227;BME280;51805;49.012;12.104;2023-04-30T10:29:04;98162.78;;;22.54;46.34
65227;BME280;51805;49.012;12.104;2023-04-30T10:31:29;98148.69;;;22.52;46.40
65227;BME280;51805;49.012;12.104;2023-04-30T10:34:08;98142.19;;;22.48;46.55
65227;BME280;51805;49.012;12.104;2023-04-30T10:39:04;98141.13;;;22.54;46.25
65227;BME280;51805;49.012;12.104;2023-04-30T10:41:30;98139.19;;;22.49;46.10
65227;BME280;51805;49.012;12.104;2023-04-30T10:43:56;98136.78;;;22.53;46.34
65227;BME280;51805;49.012;12.104;2023-04-30T10:46:22;98137.06;;;22.51;46.46
65227;BME280;51805;49.012;12.104;2023-04-30T10:48:48;98133.78;;;22.49;46.37
65227;BME280;51805;49.012;12.104;2023-04-30T10:51:14;98134.31;;;22.56;46.36
65227;BME280;51805;49.012;12.104;2023-04-30T10:53:41;98133.78;;;22.49;46.32
65227;BME280;51805;49.012;12.104;2023-04-30T10:56:07;98139.75;;;22.56;46.43
65227;BME280;51805;49.012;12.104;2023-04-30T10:58:35;98135.41;;;22.55;46.44
65227;BME280;51805;49.012;12.104;2023-04-30T11:03:29;98122.72;;;22.51;46.37
65227;BME280;51805;49.012;12.104;2023-04-30T11:05:54;98137.03;;;22.56;46.41
65227;BME280;51805;49.012;12.104;2023-04-30T11:08:31;98119.69;;;22.47;46.25
65227;BME280;51805;49.012;12.104;2023-04-30T11:10:58;98126.75;;;22.53;46.36
65227;BME280;51805;49.012;12.104;2023-04-30T11:13:25;98128.34;;;22.59;46.43
65227;BME280;51805;49.012;12.104;2023-04-30T11:15:50;98127.28;;;22.60;46.33
65227;BME280;51805;49.012;12.104;2023-04-30T11:18:17;98117.28;;;22.56;46.12
65227;BME280;51805;49.012;12.104;2023-04-30T11:20:49;98121.59;;;22.62;46.26
65227;BME280;51805;49.012;12.104;2023-04-30T11:23:16;98117.78;;;22.63;46.31
65227;BME280;51805;49.012;12.104;2023-04-30T11:25:45;98114.56;;;22.61;46.33
65227;BME280;51805;49.012;12.104;2023-04-30T11:28:19;98108.59;;;22.64;46.07
65227;BME280;51805;49.012;12.104;2023-04-30T11:30:53;98113.19;;;22.63;46.37
65227;BME280;51805;49.012;12.104;2023-04-30T11:33:19;98109.38;;;22.64;46.04
65227;BME280;51805;49.012;12.104;2023-04-30T11:35:45;98101.03;;;22.61;46.17
65227;BME280;51805;49.012;12.104;2023-04-30T11:38:14;98095.59;;;22.61;46.12
65227;BME280;51805;49.012;12.104;2023-04-30T11:40:41;98100.69;;;22.67;46.06
65227;BME280;51805;49.012;12.104;2023-04-30T11:43:07;98085.56;;;22.61;46.12
65227;BME280;51805;49.012;12.104;2023-04-30T11:46:03;98097.44;;;22.70;46.09
65227;BME280;51805;49.012;12.104;2023-04-30T11:48:31;98098.53;;;22.69;46.28
65227;BME280;51805;49.012;12.104;2023-04-30T11:50:56;98099.09;;;22.71;46.10
65227;BME280;51805;49.012;12.104;2023-04-30T11:53:28;98096.38;;;22.71;46.05
65227;BME280;51805;49.012;12.104;2023-04-30T11:55:53;98092.03;;;22.70;46.10
65227;BME280;51805;49.012;12.104;2023-04-30T11:58:18;98095.28;;;22.72;46.03
65227;BME280;51805;49.012;12.104;2023-04-30T12:00:44;98094.72;;;22.70;46.26
65227;BME280;51805;49.012;12.104;2023-04-30T12:03:09;98094.22;;;22.68;46.21
65227;BME280;51805;49.012;12.104;2023-04-30T12:05:34;98094.72;;;22.70;46.04
65227;BME280;51805;49.012;12.104;2023-04-30T12:08:03;98080.69;;;22.63;46.05
65227;BME280;51805;49.012;12.104;2023-04-30T12:10:30;98096.88;;;22.73;46.09
65227;BME280;51805;49.012;12.104;2023-04-30T12:12:55;98095.28;;;22.72;46.28
65227;BME280;51805;49.012;12.104;2023-04-30T12:15:22;98094.72;;;22.75;46.15
65227;BME280;51805;49.012;12.104;2023-04-30T12:17:48;98082.81;;;22.71;45.96
65227;BME280;51805;49.012;12.104;2023-04-30T12:20:14;98079.03;;;22.72;46.09
65227;BME280;51805;49.012;12.104;2023-04-30T12:22:41;98083.59;;;22.77;45.88
65227;BME280;51805;49.012;12.104;2023-04-30T12:25:10;98078.72;;;22.79;46.04
65227;BME280;51805;49.012;12.104;2023-04-30T12:27:36;98063.59;;;22.73;45.99
65227;BME280;51805;49.012;12.104;2023-04-30T12:30:05;98070.06;;;22.77;45.94
65227;BME280;51805;49.012;12.104;2023-04-30T12:32:31;98060.81;;;22.78;45.95
65227;BME280;51805;49.012;12.104;2023-04-30T12:35:00;98063.25;;;22.79;45.86
65227;BME280;51805;49.012;12.104;2023-04-30T12:37:25;98068.16;;;22.77;46.01
65227;BME280;51805;49.012;12.104;2023-04-30T12:39:51;98071.38;;;22.84;45.83
65227;BME280;51805;49.012;12.104;2023-04-30T12:42:19;98065.16;;;22.84;45.85
65227;BME280;51805;49.012;12.104;2023-04-30T12:44:45;98064.03;;;22.90;45.92
65227;BME280;51805;49.012;12.104;2023-04-30T12:47:11;98057.25;;;22.92;45.80
65227;BME280;51805;49.012;12.104;2023-04-30T12:49:36;98059.13;;;22.92;45.87
65227;BME280;51805;49.012;12.104;2023-04-30T12:52:12;98049.19;;;22.82;45.94
65227;BME280;51805;49.012;12.104;2023-04-30T12:54:38;98044.28;;;22.84;45.81
65227;BME280;51805;49.012;12.104;2023-04-30T12:57:05;98058.91;;;22.88;45.98
65227;BME280;51805;49.012;12.104;2023-04-30T12:59:33;98047.00;;;22.79;46.08
65227;BME280;51805;49.012;12.104;2023-04-30T13:02:12;98049.69;;;22.84;45.99
65227;BME280;51805;49.012;12.104;2023-04-30T13:04:42;98048.34;;;22.87;45.85
65227;BME280;51805;49.012;12.104;2023-04-30T13:07:07;98046.41;;;22.92;45.77
65227;BME280;51805;49.012;12.104;2023-04-30T13:09:33;98039.38;;;22.91;45.78